Time;durP1;ratioP1;P1;durP2;ratioP2;P2;SDS_P1;SDS_P2;PMS_P1;PMS_P2;Temp;Humidity;BMP_temperature;BMP_pressure;BME280_temperature;BME280_humidity;BME280_pressure;Samples;Min_cycle;Max_cycle;Signal;HPM_P1;HPM_P2
2022/01/06 00:00:07;;;;;;;21.30;8.82;;;1.30;99.90;;;;;;5088669;28;20233;-72
2022/01/06 00:02:33;;;;;;;17.45;8.15;;;1.30;99.90;;;;;;5088711;28;20031;-73
2022/01/06 00:04:58;;;;;;;23.50;8.98;;;1.30;99.90;;;;;;5106683;28;20203;-72
2022/01/06 00:07:24;;;;;;;20.17;8.52;;;1.30;99.90;;;;;;5088679;28;20016;-72
2022/01/06 00:09:51;;;;;;;25.77;10.52;;;1.20;99.90;;;;;;5106737;28;20027;-74
2022/01/06 00:12:19;;;;;;;26.48;9.40;;;1.20;99.90;;;;;;5107012;28;20008;-72
2022/01/06 00:15:08;;;;;;;26.15;9.98;;;1.10;99.90;;;;;;5099139;28;20016;-73
2022/01/06 00:17:45;;;;;;;26.13;9.23;;;1.20;99.90;;;;;;5100509;28;20012;-72
2022/01/06 00:25:42;;;;;;;26.02;11.13;;;1.10;99.90;;;;;;5096901;28;20020;-73
2022/01/06 00:28:08;;;;;;;29.55;10.70;;;1.10;99.90;;;;;;5089803;28;20049;-73
2022/01/06 00:30:33;;;;;;;32.72;10.88;;;1.10;99.90;;;;;;5083782;28;20012;-73
2022/01/06 00:32:59;;;;;;;33.67;11.60;;;1.10;99.90;;;;;;5104789;28;20036;-72
2022/01/06 00:35:25;;;;;;;34.00;11.95;;;0.90;99.90;;;;;;5087966;28;20019;-73
2022/01/06 00:37:50;;;;;;;26.42;10.80;;;0.90;99.90;;;;;;5088242;28;20053;-72
2022/01/06 00:40:16;;;;;;;24.67;11.05;;;0.90;99.90;;;;;;5105759;28;20331;-72
2022/01/06 00:42:42;;;;;;;27.52;10.52;;;0.90;99.90;;;;;;5106104;28;20318;-73
2022/01/06 00:45:08;;;;;;;24.52;10.15;;;0.90;99.90;;;;;;5105683;28;20326;-72
2022/01/06 00:47:34;;;;;;;35.40;10.77;;;0.90;99.90;;;;;;5105738;28;20012;-73
2022/01/06 00:50:00;;;;;;;31.48;10.48;;;0.80;99.90;;;;;;5087521;28;20020;-72
2022/01/06 00:52:25;;;;;;;30.85;10.05;;;0.80;99.90;;;;;;5087755;28;20035;-72
2022/01/06 00:54:51;;;;;;;25.60;9.80;;;0.90;99.90;;;;;;5105637;28;20064;-72
2022/01/06 00:57:16;;;;;;;26.35;9.90;;;0.90;99.90;;;;;;5105771;28;20023;-73
2022/01/06 00:59:42;;;;;;;29.65;10.23;;;0.90;99.90;;;;;;5070956;28;20066;-72
2022/01/06 01:02:08;;;;;;;24.70;9.98;;;0.80;99.90;;;;;;5087620;28;20047;-73
2022/01/06 01:04:33;;;;;;;27.77;9.43;;;0.70;99.90;;;;;;5104980;28;20016;-73
2022/01/06 01:06:59;;;;;;;23.75;8.38;;;0.70;99.90;;;;;;5087875;28;20039;-73
2022/01/06 01:09:25;;;;;;;25.90;8.30;;;0.60;99.90;;;;;;5105223;28;20084;-73
2022/01/06 01:11:50;;;;;;;21.13;8.68;;;0.60;99.90;;;;;;5105334;28;20016;-72
2022/01/06 01:14:22;;;;;;;23.35;8.43;;;0.70;99.90;;;;;;5087135;28;20091;-72
2022/01/06 01:16:54;;;;;;;22.80;9.65;;;0.70;99.90;;;;;;5088514;28;20028;-72
2022/01/06 01:19:20;;;;;;;28.48;9.27;;;0.70;99.90;;;;;;5071396;28;20016;-73
2022/01/06 01:21:47;;;;;;;17.65;7.40;;;0.60;99.90;;;;;;5106381;28;20050;-73
2022/01/06 01:24:12;;;;;;;21.02;7.90;;;0.70;99.90;;;;;;5125477;28;20217;-72
2022/01/06 01:26:38;;;;;;;21.13;7.88;;;0.60;99.90;;;;;;5116665;28;20015;-72
2022/01/06 01:29:04;;;;;;;24.60;8.65;;;0.60;99.90;;;;;;5105409;28;20012;-72
2022/01/06 01:31:36;;;;;;;33.42;8.80;;;0.70;99.90;;;;;;5095106;28;20187;-73
2022/01/06 01:34:08;;;;;;;18.52;6.93;;;0.80;99.90;;;;;;5069124;28;20208;-73
2022/01/06 01:36:35;;;;;;;21.35;7.28;;;0.80;99.90;;;;;;5087094;28;20035;-73
2022/01/06 01:39:01;;;;;;;21.90;7.35;;;0.70;99.90;;;;;;5105049;28;20052;-72
2022/01/06 01:41:27;;;;;;;20.55;7.55;;;0.80;99.90;;;;;;5070195;28;20042;-73
2022/01/06 01:43:55;;;;;;;16.33;7.00;;;0.70;99.90;;;;;;5104895;28;20020;-73
2022/01/06 01:46:28;;;;;;;18.08;6.65;;;0.80;99.90;;;;;;5104328;28;20035;-72
2022/01/06 01:49:15;;;;;;;27.85;7.00;;;0.90;99.90;;;;;;5105009;28;20024;-72
2022/01/06 01:51:40;;;;;;;18.20;6.28;;;1.00;99.90;;;;;;5089446;28;20034;-72
2022/01/06 01:54:06;;;;;;;21.33;7.75;;;1.00;99.90;;;;;;5104066;28;20027;-72
2022/01/06 01:56:32;;;;;;;21.92;7.18;;;0.90;99.90;;;;;;5086197;28;20020;-72
2022/01/06 01:58:58;;;;;;;15.80;7.80;;;0.90;99.90;;;;;;5086533;28;20079;-73
2022/01/06 02:01:23;;;;;;;24.17;8.10;;;0.90;99.90;;;;;;5086180;28;20082;-72
2022/01/06 02:03:49;;;;;;;21.50;8.32;;;0.90;99.90;;;;;;5104661;28;20012;-72
2022/01/06 02:06:15;;;;;;;19.40;6.75;;;0.90;99.90;;;;;;5103686;28;20024;-74
2022/01/06 02:08:40;;;;;;;17.98;7.28;;;1.00;99.90;;;;;;5113934;28;20019;-72
2022/01/06 02:11:06;;;;;;;22.42;7.53;;;1.10;99.90;;;;;;5111667;28;20019;-73
2022/01/06 02:13:32;;;;;;;16.83;6.30;;;1.10;99.90;;;;;;5121415;28;20035;-73
2022/01/06 02:16:01;;;;;;;18.35;6.80;;;1.30;99.90;;;;;;5124364;28;20023;-73
2022/01/06 02:18:28;;;;;;;19.95;6.75;;;1.30;99.90;;;;;;5107140;28;20058;-72
2022/01/06 02:20:55;;;;;;;20.80;7.13;;;1.40;99.90;;;;;;5124298;28;20031;-73
2022/01/06 02:23:22;;;;;;;18.92;6.95;;;1.40;99.90;;;;;;5106764;28;20020;-72
2022/01/06 02:25:49;;;;;;;20.48;7.10;;;1.40;99.90;;;;;;5106513;28;20024;-73
2022/01/06 02:28:18;;;;;;;22.92;6.93;;;1.40;99.90;;;;;;5106778;28;20016;-72
2022/01/06 02:30:48;;;;;;;12.80;6.78;;;1.60;99.90;;;;;;5101640;28;20020;-72
2022/01/06 02:33:14;;;;;;;19.92;6.68;;;1.70;99.90;;;;;;5107056;28;20024;-73
2022/01/06 02:35:39;;;;;;;15.05;6.80;;;1.70;99.90;;;;;;5104203;28;20266;-73
2022/01/06 02:38:05;;;;;;;19.13;7.55;;;1.70;99.90;;;;;;5124505;28;20085;-73
2022/01/06 02:40:31;;;;;;;20.02;7.40;;;1.70;99.90;;;;;;5105949;28;20051;-73
2022/01/06 02:42:58;;;;;;;20.63;7.50;;;1.70;99.90;;;;;;5089575;28;20304;-73
2022/01/06 02:45:26;;;;;;;20.10;7.28;;;1.60;99.90;;;;;;5106040;28;20032;-72
2022/01/06 02:47:53;;;;;;;20.40;6.95;;;1.70;99.90;;;;;;5106340;28;20023;-73
2022/01/06 02:50:19;;;;;;;20.95;7.55;;;1.70;99.90;;;;;;5085605;28;20054;-73
2022/01/06 02:52:45;;;;;;;20.13;7.68;;;1.60;99.90;;;;;;5103456;28;20024;-72
2022/01/06 02:55:12;;;;;;;18.60;7.30;;;1.80;99.90;;;;;;5103678;28;20046;-73
2022/01/06 02:57:38;;;;;;;17.55;6.05;;;1.90;99.90;;;;;;5068914;28;20088;-73
2022/01/06 03:00:07;;;;;;;17.23;6.20;;;1.90;99.90;;;;;;5085745;28;20024;-73
2022/01/06 03:02:33;;;;;;;15.80;7.22;;;1.90;99.90;;;;;;5085997;28;20089;-72
2022/01/06 03:04:59;;;;;;;19.33;7.20;;;1.80;99.90;;;;;;5103143;28;20295;-72
2022/01/06 03:07:26;;;;;;;13.27;6.60;;;1.70;99.90;;;;;;5099909;28;20105;-73
2022/01/06 03:09:55;;;;;;;15.60;5.97;;;1.70;99.90;;;;;;5110292;28;20042;-73
2022/01/06 03:12:28;;;;;;;16.02;5.85;;;1.70;99.90;;;;;;5137184;28;20015;-72
2022/01/06 03:14:54;;;;;;;14.75;6.03;;;1.80;99.90;;;;;;5119652;28;20031;-73
2022/01/06 03:17:21;;;;;;;15.55;5.15;;;1.90;99.90;;;;;;5100637;28;20019;-72
2022/01/06 03:19:47;;;;;;;14.77;4.75;;;1.80;99.90;;;;;;5113855;28;20035;-73
2022/01/06 03:22:13;;;;;;;17.25;5.60;;;1.80;99.90;;;;;;5096775;28;20199;-74
2022/01/06 03:24:40;;;;;;;15.30;5.13;;;1.80;99.90;;;;;;5089881;28;20083;-73
2022/01/06 03:27:05;;;;;;;15.57;5.40;;;1.80;99.90;;;;;;5101359;28;20020;-73
2022/01/06 03:29:31;;;;;;;19.90;6.05;;;1.80;99.90;;;;;;5103471;28;20020;-73
2022/01/06 03:31:58;;;;;;;13.85;5.20;;;1.80;99.90;;;;;;5089381;28;20016;-73
2022/01/06 03:34:25;;;;;;;13.23;4.90;;;1.90;99.90;;;;;;5117788;28;20030;-73
2022/01/06 03:36:50;;;;;;;17.35;4.97;;;2.10;99.90;;;;;;5121665;28;20210;-73
2022/01/06 03:39:16;;;;;;;14.35;4.75;;;2.10;99.90;;;;;;5105219;28;20051;-73
2022/01/06 03:41:42;;;;;;;9.63;4.80;;;2.20;99.90;;;;;;5105679;28;20024;-73
2022/01/06 03:44:07;;;;;;;14.57;5.03;;;2.20;99.90;;;;;;5123687;28;20016;-73
2022/01/06 03:46:33;;;;;;;17.23;4.65;;;2.20;99.90;;;;;;5115215;28;20020;-74
2022/01/06 03:48:58;;;;;;;16.52;4.75;;;2.00;99.90;;;;;;5103243;28;20020;-73
2022/01/06 03:51:25;;;;;;;19.13;4.97;;;2.00;99.90;;;;;;5113901;28;20210;-73
2022/01/06 03:53:51;;;;;;;17.27;5.07;;;2.10;99.90;;;;;;5099166;28;20028;-72
2022/01/06 03:56:17;;;;;;;16.65;5.20;;;2.00;99.90;;;;;;5102956;28;20095;-73
2022/01/06 03:58:44;;;;;;;13.82;4.35;;;2.10;99.90;;;;;;5116757;28;20012;-74
2022/01/06 04:01:10;;;;;;;16.08;4.90;;;2.20;99.90;;;;;;5105407;28;20108;-73
2022/01/06 04:03:36;;;;;;;13.88;4.50;;;2.10;99.90;;;;;;5088715;28;20086;-73
2022/01/06 04:06:02;;;;;;;11.27;4.63;;;2.20;99.90;;;;;;5104751;28;20020;-73
2022/01/06 04:08:28;;;;;;;13.68;4.53;;;2.30;99.90;;;;;;5105062;28;20020;-73
2022/01/06 04:10:54;;;;;;;12.32;4.47;;;2.30;99.90;;;;;;5098605;28;20047;-73
2022/01/06 04:13:19;;;;;;;14.23;5.85;;;2.30;99.90;;;;;;5085035;28;20028;-73
2022/01/06 04:15:46;;;;;;;11.52;4.53;;;2.30;99.90;;;;;;5084706;28;20049;-73
2022/01/06 04:18:11;;;;;;;13.73;4.63;;;2.50;99.90;;;;;;5102534;28;20079;-74
2022/01/06 04:20:37;;;;;;;15.30;5.55;;;2.50;99.90;;;;;;5126997;28;20023;-73
2022/01/06 04:23:03;;;;;;;12.93;4.80;;;2.30;99.90;;;;;;5127225;28;20024;-73
2022/01/06 04:25:28;;;;;;;13.35;4.28;;;2.40;99.90;;;;;;5108939;28;20094;-74
2022/01/06 04:27:54;;;;;;;16.95;4.45;;;2.50;99.90;;;;;;5126679;28;20043;-73
2022/01/06 04:30:20;;;;;;;10.05;3.60;;;2.60;99.90;;;;;;5124954;28;20339;-74
2022/01/06 04:32:46;;;;;;;11.57;4.03;;;2.70;99.90;;;;;;5106352;28;20016;-73
2022/01/06 04:35:11;;;;;;;13.30;4.68;;;2.70;99.90;;;;;;5105889;28;20047;-73
2022/01/06 04:37:38;;;;;;;13.45;4.45;;;2.70;99.90;;;;;;5105082;28;20022;-73
2022/01/06 04:40:06;;;;;;;14.65;3.85;;;2.70;99.90;;;;;;5087894;28;20036;-73
2022/01/06 04:42:32;;;;;;;11.68;3.58;;;2.70;99.90;;;;;;5103972;28;20027;-74
2022/01/06 04:44:57;;;;;;;13.00;3.53;;;2.70;99.90;;;;;;5108263;28;20019;-73
2022/01/06 04:47:23;;;;;;;13.07;4.20;;;2.80;99.90;;;;;;5094289;28;20028;-73
2022/01/06 04:49:49;;;;;;;11.68;4.07;;;2.80;99.90;;;;;;5105767;28;20024;-73
2022/01/06 04:52:15;;;;;;;9.20;3.53;;;2.80;99.90;;;;;;5088051;28;20039;-73
2022/01/06 04:54:41;;;;;;;14.40;3.90;;;2.90;99.90;;;;;;5087612;28;20300;-73
2022/01/06 04:57:06;;;;;;;14.07;3.92;;;2.90;99.90;;;;;;5087886;28;20091;-74
2022/01/06 04:59:32;;;;;;;13.05;3.95;;;2.90;99.90;;;;;;5105453;28;20032;-73
2022/01/06 05:01:58;;;;;;;15.88;6.30;;;2.90;99.90;;;;;;5105996;28;20117;-73
2022/01/06 05:04:23;;;;;;;12.50;4.47;;;2.80;99.90;;;;;;5087289;28;20055;-73
2022/01/06 05:06:51;;;;;;;10.55;3.65;;;2.80;99.90;;;;;;5101366;28;20012;-73
2022/01/06 05:09:17;;;;;;;15.70;4.80;;;2.80;99.90;;;;;;5125629;28;20019;-73
2022/01/06 05:11:43;;;;;;;14.93;5.22;;;2.70;99.90;;;;;;5125964;28;20321;-74
2022/01/06 05:14:08;;;;;;;17.17;4.55;;;2.60;99.90;;;;;;5105475;28;20020;-73
2022/01/06 05:16:34;;;;;;;14.07;4.03;;;2.60;99.90;;;;;;5105258;28;20311;-73
2022/01/06 05:19:00;;;;;;;14.57;4.00;;;2.70;99.90;;;;;;5087134;28;20027;-73
2022/01/06 05:21:31;;;;;;;9.85;4.00;;;2.70;99.90;;;;;;5105017;28;20031;-73
2022/01/06 05:23:57;;;;;;;13.85;4.18;;;2.70;99.90;;;;;;5088421;28;20080;-74
2022/01/06 05:26:23;;;;;;;9.52;3.92;;;2.70;99.90;;;;;;5087290;28;20027;-73
2022/01/06 05:28:49;;;;;;;15.68;4.47;;;2.70;99.90;;;;;;5106103;28;20024;-73
2022/01/06 05:31:15;;;;;;;16.25;5.20;;;2.70;99.90;;;;;;5097248;28;20042;-73
2022/01/06 05:33:40;;;;;;;12.38;4.82;;;2.60;99.90;;;;;;5105344;28;20027;-73
2022/01/06 05:36:06;;;;;;;13.70;4.25;;;2.60;99.90;;;;;;5104694;28;20019;-74
2022/01/06 05:38:33;;;;;;;12.55;3.80;;;2.60;99.90;;;;;;5102933;28;20020;-73
2022/01/06 05:40:58;;;;;;;22.17;4.38;;;2.70;99.90;;;;;;5104481;28;20379;-73
2022/01/06 05:43:25;;;;;;;16.80;3.65;;;2.60;99.90;;;;;;5105512;28;20027;-74
2022/01/06 05:45:53;;;;;;;13.98;3.47;;;2.60;99.90;;;;;;5106203;28;20016;-74
2022/01/06 05:48:19;;;;;;;13.75;4.38;;;2.60;99.90;;;;;;5104546;28;20065;-73
2022/01/06 05:50:48;;;;;;;15.23;4.35;;;2.70;99.90;;;;;;5104061;28;20008;-73
2022/01/06 05:53:15;;;;;;;12.20;3.92;;;2.70;99.90;;;;;;5104858;28;20016;-74
2022/01/06 05:55:41;;;;;;;20.10;3.72;;;2.80;99.90;;;;;;5099737;28;20020;-73
2022/01/06 05:58:07;;;;;;;11.57;4.15;;;2.90;99.90;;;;;;5125696;28;20016;-73
2022/01/06 06:00:32;;;;;;;9.35;3.38;;;2.90;99.90;;;;;;5090829;28;20035;-73
2022/01/06 06:02:58;;;;;;;14.13;3.60;;;3.00;99.90;;;;;;5111798;28;20027;-72
2022/01/06 06:05:25;;;;;;;9.57;3.00;;;2.90;99.90;;;;;;5130940;28;20019;-73
2022/01/06 06:07:51;;;;;;;10.82;2.97;;;2.90;99.90;;;;;;5099988;28;20019;-74
2022/01/06 06:10:16;;;;;;;13.48;2.85;;;2.80;99.90;;;;;;5113693;28;20317;-71
2022/01/06 06:12:42;;;;;;;8.63;3.08;;;2.90;99.90;;;;;;5112123;28;20091;-73
2022/01/06 06:15:08;;;;;;;11.00;3.20;;;3.00;99.90;;;;;;5115624;28;20039;-73
2022/01/06 06:17:34;;;;;;;10.52;3.40;;;3.10;99.90;;;;;;5094884;28;20020;-73
2022/01/06 06:20:00;;;;;;;10.55;3.38;;;3.20;99.90;;;;;;5092508;28;20188;-73
2022/01/06 06:22:26;;;;;;;13.63;3.33;;;3.20;99.90;;;;;;5090321;28;20077;-73
2022/01/06 06:24:52;;;;;;;10.95;2.88;;;3.30;99.90;;;;;;5105948;28;20016;-73
2022/01/06 06:27:17;;;;;;;14.02;3.63;;;3.20;99.90;;;;;;5086993;28;20020;-73
2022/01/06 06:29:43;;;;;;;11.07;2.95;;;3.20;99.90;;;;;;5103687;28;20075;-74
2022/01/06 06:32:09;;;;;;;13.20;2.95;;;3.20;99.90;;;;;;5085887;28;20065;-74
2022/01/06 06:34:35;;;;;;;11.88;3.22;;;3.20;99.90;;;;;;5103397;28;20030;-73
2022/01/06 06:37:00;;;;;;;13.18;2.78;;;3.30;99.90;;;;;;5086119;28;20074;-73
2022/01/06 06:39:26;;;;;;;9.93;3.20;;;3.30;99.90;;;;;;5083437;28;20048;-73
2022/01/06 06:41:52;;;;;;;16.88;3.03;;;3.30;99.90;;;;;;5085819;28;20027;-73
2022/01/06 06:44:17;;;;;;;18.17;3.67;;;3.30;99.90;;;;;;5103875;28;20020;-73
2022/01/06 06:46:43;;;;;;;11.60;2.58;;;3.40;99.90;;;;;;5103500;28;20016;-73
2022/01/06 06:49:09;;;;;;;14.82;2.53;;;3.50;99.90;;;;;;5099331;28;20020;-73
2022/01/06 06:51:35;;;;;;;10.23;2.35;;;3.60;99.90;;;;;;5103640;28;20047;-73
2022/01/06 06:54:01;;;;;;;10.85;2.50;;;3.60;99.90;;;;;;5103609;28;20089;-73
2022/01/06 06:56:27;;;;;;;5.47;1.90;;;3.70;99.90;;;;;;5103826;28;20303;-74
2022/01/06 06:58:52;;;;;;;4.43;1.90;;;3.80;99.90;;;;;;5103809;28;20211;-73
2022/01/06 07:01:18;;;;;;;12.43;1.83;;;3.80;99.90;;;;;;5084962;28;20012;-73
2022/01/06 07:03:44;;;;;;;9.02;2.05;;;3.90;99.90;;;;;;5103494;28;20023;-73
2022/01/06 07:06:10;;;;;;;18.20;2.83;;;3.80;99.90;;;;;;5103041;28;20024;-74
2022/01/06 07:08:35;;;;;;;9.43;2.00;;;3.80;99.90;;;;;;5100912;28;20020;-73
2022/01/06 07:11:01;;;;;;;9.70;1.95;;;3.70;99.90;;;;;;5123434;28;20012;-73
2022/01/06 07:13:27;;;;;;;10.60;2.10;;;3.60;99.90;;;;;;5123958;28;20231;-73
2022/01/06 07:15:52;;;;;;;8.38;2.05;;;3.50;99.90;;;;;;5105259;28;20063;-72
2022/01/06 07:18:18;;;;;;;4.15;1.58;;;3.40;99.90;;;;;;5123931;28;20027;-73
2022/01/06 07:20:44;;;;;;;10.43;1.98;;;3.40;99.90;;;;;;5123480;28;20035;-73
2022/01/06 07:23:10;;;;;;;7.90;2.30;;;3.40;99.90;;;;;;5124095;28;20049;-73
2022/01/06 07:25:36;;;;;;;9.75;2.15;;;3.30;99.90;;;;;;5088946;28;20027;-73
2022/01/06 07:28:01;;;;;;;7.88;2.28;;;3.30;99.90;;;;;;5105870;28;20031;-74
2022/01/06 07:30:30;;;;;;;12.75;1.98;;;3.20;99.90;;;;;;5121180;28;20035;-73
2022/01/06 07:32:55;;;;;;;20.67;2.47;;;3.20;99.90;;;;;;5103131;28;20024;-73
2022/01/06 07:35:21;;;;;;;9.88;2.17;;;3.20;99.90;;;;;;5084996;28;20032;-73
2022/01/06 07:37:48;;;;;;;19.73;3.08;;;3.10;99.90;;;;;;5085251;28;20008;-73
2022/01/06 07:40:14;;;;;;;33.25;4.10;;;3.10;99.90;;;;;;5101572;28;20439;-73
2022/01/06 07:42:40;;;;;;;34.92;4.00;;;3.10;99.90;;;;;;5103514;28;20024;-73
2022/01/06 07:45:06;;;;;;;101.35;11.43;;;3.00;99.90;;;;;;5068575;28;20020;-74
2022/01/06 07:47:35;;;;;;;49.38;4.72;;;3.00;99.90;;;;;;5103043;28;20038;-73
2022/01/06 07:50:02;;;;;;;30.08;3.60;;;3.00;99.90;;;;;;5085264;28;20008;-72
2022/01/06 07:52:27;;;;;;;43.90;4.90;;;3.00;99.90;;;;;;5102949;28;20115;-71
2022/01/06 07:54:53;;;;;;;14.68;2.53;;;3.00;99.90;;;;;;5088245;28;20020;-74
2022/01/06 07:57:19;;;;;;;22.75;3.03;;;3.00;99.90;;;;;;5089043;28;20020;-75
2022/01/06 07:59:44;;;;;;;13.60;2.28;;;3.10;99.90;;;;;;5106802;28;20039;-74
2022/01/06 08:02:10;;;;;;;11.18;2.55;;;3.10;99.90;;;;;;5106804;28;20008;-73
2022/01/06 08:04:36;;;;;;;15.48;2.63;;;3.10;99.90;;;;;;5088368;28;20032;-78
2022/01/06 08:07:02;;;;;;;10.32;2.20;;;3.20;99.90;;;;;;5106208;28;20024;-79
2022/01/06 08:09:28;;;;;;;11.95;2.50;;;3.20;99.90;;;;;;5088348;28;20121;-78
2022/01/06 08:11:53;;;;;;;10.85;2.35;;;3.30;99.90;;;;;;5106228;28;20038;-77
2022/01/06 08:14:19;;;;;;;9.05;1.90;;;3.40;99.90;;;;;;5088272;28;20313;-78
2022/01/06 08:16:45;;;;;;;8.60;2.13;;;3.50;99.90;;;;;;5085912;28;20026;-79
2022/01/06 08:19:11;;;;;;;9.40;1.83;;;3.60;99.90;;;;;;5089591;28;20024;-79
2022/01/06 08:21:37;;;;;;;9.02;1.65;;;3.70;99.90;;;;;;5106015;28;20012;-76
2022/01/06 08:24:03;;;;;;;9.00;2.35;;;3.70;99.90;;;;;;5087862;28;20069;-77
2022/01/06 08:26:28;;;;;;;11.23;1.98;;;3.80;99.90;;;;;;5105382;28;20075;-77
2022/01/06 08:28:54;;;;;;;15.18;2.53;;;3.90;99.90;;;;;;5071658;28;20016;-77
2022/01/06 08:31:19;;;;;;;17.83;2.35;;;4.00;99.90;;;;;;5104845;28;20075;-77
2022/01/06 08:33:46;;;;;;;7.47;2.05;;;4.10;99.90;;;;;;5104814;28;20055;-75
2022/01/06 08:36:12;;;;;;;10.05;2.25;;;4.10;99.90;;;;;;5099612;28;20067;-76
2022/01/06 08:38:37;;;;;;;7.10;2.13;;;4.10;99.90;;;;;;5126395;28;20019;-80
2022/01/06 08:41:03;;;;;;;10.05;2.20;;;4.20;99.90;;;;;;5120813;28;20378;-78
2022/01/06 08:43:29;;;;;;;12.75;2.58;;;4.20;99.90;;;;;;5088072;28;20027;-77
2022/01/06 08:45:57;;;;;;;14.65;3.33;;;4.30;99.90;;;;;;5087920;28;20016;-78
2022/01/06 08:48:29;;;;;;;13.73;2.88;;;4.30;99.90;;;;;;5070893;28;20027;-76
2022/01/06 08:50:54;;;;;;;14.27;2.53;;;4.30;99.90;;;;;;5088672;28;20099;-75
2022/01/06 08:53:22;;;;;;;11.45;2.60;;;4.40;99.90;;;;;;5105055;28;20028;-76
2022/01/06 08:55:48;;;;;;;11.35;2.38;;;4.40;99.90;;;;;;5086922;28;20016;-76
2022/01/06 08:58:14;;;;;;;29.73;4.05;;;4.40;99.60;;;;;;5120745;28;20457;-75
2022/01/06 09:00:41;;;;;;;42.80;4.40;;;4.40;99.40;;;;;;5088775;28;20195;-78
2022/01/06 09:03:08;;;;;;;14.85;2.50;;;4.30;99.70;;;;;;5088995;28;20110;-83
2022/01/06 09:05:35;;;;;;;23.55;3.78;;;4.30;99.90;;;;;;5075018;28;20019;-79
2022/01/06 09:08:00;;;;;;;18.40;3.67;;;4.30;99.60;;;;;;5108970;28;20333;-79
2022/01/06 09:10:30;;;;;;;8.63;2.28;;;4.20;99.50;;;;;;5093785;28;20087;-78
2022/01/06 09:12:56;;;;;;;14.88;2.58;;;4.20;99.90;;;;;;5075809;28;20028;-78
2022/01/06 09:15:22;;;;;;;10.00;2.33;;;4.30;99.70;;;;;;5110929;28;20245;-76
2022/01/06 09:17:48;;;;;;;11.85;2.45;;;4.30;99.40;;;;;;5114884;28;20023;-82
2022/01/06 09:20:14;;;;;;;7.30;1.95;;;4.30;99.40;;;;;;5115943;28;20026;-77
2022/01/06 09:22:41;;;;;;;23.48;3.13;;;4.40;99.70;;;;;;5089362;28;20199;-77
2022/01/06 09:25:09;;;;;;;17.02;2.30;;;4.30;99.40;;;;;;5070772;28;20196;-80
2022/01/06 09:27:35;;;;;;;159.75;12.40;;;4.40;99.30;;;;;;5103376;28;20095;-79
2022/01/06 09:30:00;;;;;;;61.53;5.85;;;4.40;99.40;;;;;;5104403;28;20024;-79
2022/01/06 09:32:27;;;;;;;94.50;6.90;;;4.40;99.30;;;;;;5096636;28;20296;-79
2022/01/06 09:34:52;;;;;;;16.80;2.28;;;4.50;99.40;;;;;;5087094;28;20020;-79
2022/01/06 09:37:18;;;;;;;17.73;2.45;;;4.40;99.00;;;;;;5124849;28;20064;-81
2022/01/06 09:39:47;;;;;;;19.00;2.53;;;4.40;99.20;;;;;;5106319;28;20200;-80
2022/01/06 09:42:13;;;;;;;87.43;6.05;;;4.40;99.30;;;;;;5107064;28;20020;-76
2022/01/06 09:44:40;;;;;;;23.45;2.88;;;4.40;98.70;;;;;;5104431;28;20299;-78
2022/01/06 09:47:07;;;;;;;72.80;7.25;;;4.40;98.80;;;;;;5085942;28;20099;-79
2022/01/06 09:49:37;;;;;;;19.35;2.95;;;4.50;99.00;;;;;;5086000;28;20298;-83
2022/01/06 09:52:05;;;;;;;17.88;2.78;;;4.40;98.90;;;;;;5085720;28;20016;-78
2022/01/06 09:54:32;;;;;;;18.98;2.17;;;4.50;98.50;;;;;;5104053;28;20074;-82
2022/01/06 09:56:58;;;;;;;14.40;1.90;;;4.50;98.30;;;;;;5086349;28;20027;-79
2022/01/06 09:59:24;;;;;;;30.77;4.65;;;4.60;98.60;;;;;;5103661;28;20020;-78
2022/01/06 10:01:50;;;;;;;20.55;2.40;;;4.70;98.30;;;;;;5085986;28;20016;-81
2022/01/06 10:04:21;;;;;;;14.52;2.47;;;4.70;98.20;;;;;;5085168;28;20016;-79
2022/01/06 10:06:59;;;;;;;6.60;1.63;;;4.80;98.30;;;;;;5090605;28;20039;-80
2022/01/06 10:09:25;;;;;;;7.47;1.80;;;4.90;98.20;;;;;;5106019;28;20276;-81
2022/01/06 10:11:59;;;;;;;9.05;2.15;;;4.90;98.30;;;;;;5103732;28;20016;-80
2022/01/06 10:14:32;;;;;;;5.10;1.50;;;5.00;98.40;;;;;;5082244;28;20024;-78
2022/01/06 10:16:59;;;;;;;10.88;2.20;;;5.00;98.30;;;;;;5106576;28;20034;-77
2022/01/06 10:19:25;;;;;;;6.50;1.52;;;5.10;98.30;;;;;;5105429;28;20276;-78
2022/01/06 10:21:57;;;;;;;11.10;2.15;;;5.00;98.00;;;;;;5124065;28;20023;-84
2022/01/06 10:24:25;;;;;;;9.77;1.80;;;5.00;98.20;;;;;;5103409;28;20043;-83
2022/01/06 10:26:58;;;;;;;8.02;2.10;;;5.10;98.70;;;;;;5068511;28;20031;-74
2022/01/06 10:29:26;;;;;;;9.63;2.15;;;5.00;98.70;;;;;;5103020;28;20317;-81
2022/01/06 10:32:01;;;;;;;11.23;2.20;;;5.10;98.40;;;;;;5103425;28;20020;-83
2022/01/06 10:34:35;;;;;;;9.00;2.50;;;5.10;98.60;;;;;;5068954;28;20108;-83
2022/01/06 10:37:02;;;;;;;16.02;2.22;;;5.20;98.80;;;;;;5069116;28;20090;-80
2022/01/06 10:39:45;;;;;;;16.48;1.95;;;5.30;98.40;;;;;;5090773;28;20107;-79
2022/01/06 10:42:11;;;;;;;12.45;1.75;;;5.40;98.20;;;;;;5084077;28;20202;-82
2022/01/06 10:44:57;;;;;;;10.10;2.60;;;5.40;98.40;;;;;;5105579;28;20018;-80
2022/01/06 10:47:44;;;;;;;13.68;1.80;;;5.40;98.50;;;;;;5119182;28;20012;-86
2022/01/06 10:50:21;;;;;;;11.38;2.00;;;5.50;98.20;;;;;;5078493;28;20031;-85
2022/01/06 10:52:53;;;;;;;7.70;1.70;;;5.50;98.40;;;;;;5086709;28;20030;-80
2022/01/06 10:55:23;;;;;;;13.80;1.38;;;5.50;98.70;;;;;;5112963;28;20095;-79
2022/01/06 10:58:00;;;;;;;7.13;1.42;;;5.60;98.40;;;;;;5068591;28;20016;-80
2022/01/06 11:00:34;;;;;;;6.53;1.83;;;5.70;98.00;;;;;;5085421;28;20012;-81
2022/01/06 11:03:19;;;;;;;10.18;2.13;;;5.70;98.40;;;;;;5093932;28;20031;-80
2022/01/06 11:05:52;;;;;;;37.33;4.45;;;5.80;98.80;;;;;;5063120;28;20034;-79
2022/01/06 11:08:21;;;;;;;19.75;2.95;;;5.90;98.40;;;;;;5085103;28;20091;-82
2022/01/06 11:11:01;;;;;;;13.07;2.75;;;6.00;98.20;;;;;;5085316;28;20016;-83
2022/01/06 11:13:27;;;;;;;16.33;2.72;;;6.00;98.30;;;;;;5084810;28;20043;-80
2022/01/06 11:15:54;;;;;;;24.35;3.78;;;6.00;98.50;;;;;;5068086;28;20035;-83
2022/01/06 11:18:20;;;;;;;30.27;3.40;;;6.00;98.90;;;;;;5093493;28;20314;-82
2022/01/06 11:20:47;;;;;;;24.02;2.72;;;6.00;99.60;;;;;;5102864;28;20016;-80
2022/01/06 11:23:22;;;;;;;10.40;2.95;;;6.00;99.60;;;;;;5101966;28;20081;-84
2022/01/06 11:26:01;;;;;;;7.88;2.22;;;6.00;99.50;;;;;;5110449;28;20004;-83
2022/01/06 11:28:30;;;;;;;13.95;3.42;;;5.90;99.40;;;;;;5087281;28;20109;-82
2022/01/06 11:30:57;;;;;;;11.00;2.50;;;5.90;99.90;;;;;;5103228;28;20341;-83
2022/01/06 11:33:23;;;;;;;9.70;2.53;;;6.00;99.90;;;;;;5107482;28;20035;-82
2022/01/06 11:35:53;;;;;;;8.00;2.13;;;5.90;99.90;;;;;;5071847;28;20043;-83
2022/01/06 11:38:25;;;;;;;18.07;2.20;;;6.00;99.90;;;;;;5102310;28;20060;-77
2022/01/06 11:40:52;;;;;;;8.15;1.58;;;6.00;99.90;;;;;;5088555;28;20036;-80
2022/01/06 11:43:19;;;;;;;10.07;2.00;;;6.10;99.90;;;;;;5070175;28;20323;-78
2022/01/06 11:45:45;;;;;;;5.63;1.33;;;6.30;99.90;;;;;;5105071;28;20200;-80
2022/01/06 11:48:14;;;;;;;9.07;1.00;;;6.40;99.90;;;;;;5106757;28;20024;-80
2022/01/06 11:50:45;;;;;;;5.75;1.10;;;6.60;99.90;;;;;;5091493;28;20112;-78
2022/01/06 11:53:12;;;;;;;4.88;1.38;;;6.70;99.90;;;;;;5072996;28;20031;-81
2022/01/06 11:55:41;;;;;;;7.47;1.20;;;6.80;99.90;;;;;;5071454;28;20264;-80
2022/01/06 11:58:22;;;;;;;5.38;1.10;;;6.90;99.90;;;;;;5113011;28;20023;-81
2022/01/06 12:01:14;;;;;;;9.02;1.27;;;7.00;99.90;;;;;;5060523;28;20362;-83
2022/01/06 12:03:43;;;;;;;4.72;0.95;;;7.00;99.90;;;;;;5087773;28;20074;-76
2022/01/06 12:06:21;;;;;;;7.80;1.10;;;7.10;99.90;;;;;;5071110;28;20248;-80
2022/01/06 12:08:46;;;;;;;6.32;1.15;;;7.20;99.90;;;;;;5095057;28;20310;-79
2022/01/06 12:11:24;;;;;;;6.65;1.77;;;7.30;99.90;;;;;;5087397;28;20020;-79
2022/01/06 12:13:52;;;;;;;7.30;1.15;;;7.20;99.90;;;;;;5088222;28;20037;-80
2022/01/06 12:16:32;;;;;;;5.03;1.27;;;7.30;99.90;;;;;;5074759;28;20023;-79
2022/01/06 12:18:59;;;;;;;6.22;0.95;;;7.30;99.90;;;;;;5087395;28;20023;-79
2022/01/06 12:21:26;;;;;;;7.43;1.08;;;7.40;99.90;;;;;;5103964;28;20016;-80
2022/01/06 12:24:04;;;;;;;6.18;1.48;;;7.40;99.90;;;;;;5086778;28;20225;-79
2022/01/06 12:26:31;;;;;;;4.40;1.17;;;7.60;99.90;;;;;;5087336;28;20318;-80
2022/01/06 12:28:57;;;;;;;8.43;1.10;;;7.60;99.90;;;;;;5062292;28;20022;-80
2022/01/06 12:31:25;;;;;;;6.82;1.02;;;7.60;99.90;;;;;;5096470;28;20020;-76
2022/01/06 12:33:53;;;;;;;6.55;1.20;;;7.60;99.90;;;;;;5087598;28;20030;-76
2022/01/06 12:36:21;;;;;;;6.65;0.82;;;7.50;99.90;;;;;;5076996;28;20054;-80
2022/01/06 12:38:47;;;;;;;4.32;0.75;;;7.40;99.90;;;;;;5104850;28;20016;-81
2022/01/06 12:41:16;;;;;;;6.70;1.02;;;7.50;99.90;;;;;;5113821;28;20032;-78
2022/01/06 12:43:43;;;;;;;9.05;1.23;;;7.40;99.90;;;;;;5089983;28;20027;-80
2022/01/06 12:46:18;;;;;;;9.00;2.40;;;7.40;99.90;;;;;;5133002;28;20012;-80
2022/01/06 12:48:46;;;;;;;10.45;1.52;;;7.40;99.90;;;;;;5115555;28;20087;-79
2022/01/06 12:51:17;;;;;;;8.60;0.95;;;7.40;99.90;;;;;;5103022;28;20039;-83
2022/01/06 12:53:49;;;;;;;3.43;0.70;;;7.40;99.90;;;;;;5114107;28;20032;-79